createdAt,value
2022-09-13T00:00:53.662Z,21.76
2022-09-13T00:03:20.989Z,21.83
2022-09-13T00:05:48.377Z,21.94
2022-09-13T00:08:16.101Z,21.81
2022-09-13T00:10:44.292Z,21.70
2022-09-13T00:13:12.474Z,21.60
2022-09-13T00:15:49.661Z,21.58
2022-09-13T00:18:17.441Z,21.71
2022-09-13T00:20:44.871Z,21.82
2022-09-13T00:23:12.267Z,21.83
2022-09-13T00:25:39.883Z,21.66
2022-09-13T00:28:07.157Z,21.49
2022-09-13T00:30:34.519Z,21.38
2022-09-13T00:33:04.780Z,21.38
2022-09-13T00:35:32.155Z,21.35
2022-09-13T00:38:00.033Z,21.42
2022-09-13T00:40:27.543Z,21.43
2022-09-13T00:42:54.801Z,21.33
2022-09-13T00:45:21.998Z,21.28
2022-09-13T00:47:53.952Z,21.23
2022-09-13T00:50:24.617Z,21.13
2022-09-13T00:53:03.744Z,21.07
2022-09-13T00:55:35.162Z,20.95
2022-09-13T00:58:08.583Z,20.83
2022-09-13T01:00:36.373Z,20.77
2022-09-13T01:03:07.035Z,20.74
2022-09-13T01:05:37.566Z,20.65
2022-09-13T01:08:16.013Z,20.62
2022-09-13T01:10:44.425Z,20.39
2022-09-13T01:13:17.013Z,20.37
2022-09-13T01:15:44.501Z,20.46
2022-09-13T01:18:11.772Z,20.41
2022-09-13T01:20:53.413Z,20.34
2022-09-13T01:23:39.310Z,20.36
2022-09-13T01:26:06.495Z,20.37
2022-09-13T01:28:42.814Z,20.37
2022-09-13T01:31:28.593Z,20.36
2022-09-13T01:34:13.674Z,20.30
2022-09-13T01:36:48.121Z,20.11
2022-09-13T01:39:19.560Z,20.05
2022-09-13T01:41:49.832Z,20.15
2022-09-13T01:44:28.225Z,20.21
2022-09-13T01:47:18.323Z,20.26
2022-09-13T01:49:48.753Z,20.32
2022-09-13T01:52:16.001Z,20.36
2022-09-13T01:54:48.335Z,20.29
2022-09-13T01:57:37.945Z,20.28
2022-09-13T02:00:10.527Z,20.25
2022-09-13T02:02:40.639Z,20.18
2022-09-13T02:05:31.160Z,20.14
2022-09-13T02:08:02.445Z,20.11
2022-09-13T02:10:36.278Z,20.08
2022-09-13T02:13:05.911Z,20.05
2022-09-13T02:15:44.270Z,20.05
2022-09-13T02:18:15.417Z,19.96
2022-09-13T02:20:44.725Z,19.91
2022-09-13T02:23:22.910Z,19.79
2022-09-13T02:25:51.126Z,19.81
2022-09-13T02:28:22.450Z,19.84
2022-09-13T02:30:52.171Z,19.90
2022-09-13T02:33:24.014Z,19.93
2022-09-13T02:35:53.593Z,19.94
2022-09-13T02:38:28.114Z,19.92
2022-09-13T02:41:06.842Z,19.89
2022-09-13T02:43:44.226Z,19.88
2022-09-13T02:46:27.352Z,19.84
2022-09-13T02:49:07.216Z,19.82
2022-09-13T02:51:46.651Z,19.80
2022-09-13T02:54:20.934Z,19.64
2022-09-13T02:56:53.216Z,19.62
2022-09-13T02:59:22.030Z,19.60
2022-09-13T03:01:50.947Z,19.60
2022-09-13T03:04:18.259Z,19.58
2022-09-13T03:06:45.789Z,19.61
2022-09-13T03:09:13.221Z,19.64
2022-09-13T03:12:03.467Z,19.65
2022-09-13T03:14:49.133Z,19.70
2022-09-13T03:17:19.396Z,19.69
2022-09-13T03:19:52.421Z,19.67
2022-09-13T03:22:38.029Z,19.65
2022-09-13T03:25:23.984Z,19.63
2022-09-13T03:27:57.222Z,19.63
2022-09-13T03:30:24.377Z,19.72
2022-09-13T03:33:05.062Z,19.68
2022-09-13T03:35:32.197Z,19.60
2022-09-13T03:37:59.324Z,19.59
2022-09-13T03:40:31.164Z,19.51
2022-09-13T03:43:01.337Z,19.44
2022-09-13T03:45:31.431Z,19.44
2022-09-13T03:47:59.025Z,19.44
2022-09-13T03:50:26.757Z,19.29
2022-09-13T03:52:58.624Z,19.20
2022-09-13T03:55:26.236Z,19.09
2022-09-13T03:57:53.410Z,19.01
2022-09-13T04:00:20.937Z,18.98
2022-09-13T04:02:48.116Z,19.08
2022-09-13T04:05:15.256Z,19.10
2022-09-13T04:07:42.502Z,19.16
2022-09-13T04:10:13.557Z,19.14
2022-09-13T04:12:41.424Z,19.03
2022-09-13T04:15:08.996Z,19.03
2022-09-13T04:17:36.398Z,19.04
2022-09-13T04:20:04.598Z,18.91
2022-09-13T04:22:31.851Z,18.84
2022-09-13T04:25:02.430Z,18.92
2022-09-13T04:27:30.044Z,19.05
2022-09-13T04:29:57.256Z,19.18
2022-09-13T04:32:24.590Z,19.24
2022-09-13T04:34:51.786Z,19.15
2022-09-13T04:37:18.960Z,18.97
2022-09-13T04:39:46.240Z,19.05
2022-09-13T04:42:13.528Z,19.16
2022-09-13T04:44:40.749Z,19.32
2022-09-13T04:47:08.872Z,19.36
2022-09-13T04:49:36.055Z,19.39
2022-09-13T04:52:03.594Z,19.46
2022-09-13T04:54:31.315Z,19.43
2022-09-13T04:56:58.507Z,19.44
2022-09-13T04:59:25.742Z,19.48
2022-09-13T05:01:53.032Z,19.44
2022-09-13T05:04:20.314Z,19.40
2022-09-13T05:06:48.505Z,19.37
2022-09-13T05:09:16.113Z,19.50
2022-09-13T05:11:43.381Z,19.66
2022-09-13T05:14:11.241Z,19.57
2022-09-13T05:16:38.450Z,19.43
2022-09-13T05:19:05.701Z,19.36
2022-09-13T05:21:33.072Z,19.32
2022-09-13T05:24:00.315Z,19.30
2022-09-13T05:26:31.402Z,19.46
2022-09-13T05:28:59.483Z,19.50
2022-09-13T05:31:37.637Z,19.52
2022-09-13T05:34:06.686Z,19.49
2022-09-13T05:36:33.966Z,19.48
2022-09-13T05:39:28.423Z,19.48
2022-09-13T05:41:51.133Z,19.40
2022-09-13T05:44:18.347Z,19.39
2022-09-13T05:46:48.817Z,19.42
2022-09-13T05:49:16.231Z,19.43
2022-09-13T05:51:43.417Z,19.46
2022-09-13T05:54:11.675Z,19.52
2022-09-13T05:56:38.961Z,19.58
2022-09-13T05:59:06.125Z,19.70
2022-09-13T06:01:33.458Z,19.68
2022-09-13T06:04:00.721Z,19.72
2022-09-13T06:06:27.966Z,19.76
2022-09-13T06:08:56.099Z,19.78
2022-09-13T06:11:23.834Z,19.83
2022-09-13T06:13:51.115Z,19.89
2022-09-13T06:16:18.351Z,19.92
2022-09-13T06:18:45.733Z,19.96
2022-09-13T06:21:17.791Z,20.02
2022-09-13T06:23:46.093Z,20.03
2022-09-13T06:26:14.499Z,20.07
2022-09-13T06:28:41.935Z,20.07
2022-09-13T06:31:10.575Z,20.08
2022-09-13T06:33:38.826Z,20.08
2022-09-13T06:36:07.818Z,20.13
2022-09-13T06:38:35.535Z,20.22
2022-09-13T06:41:07.758Z,20.28
2022-09-13T06:43:35.168Z,20.36
2022-09-13T06:46:07.052Z,20.45
2022-09-13T06:48:35.380Z,20.62
2022-09-13T06:51:03.990Z,20.81
2022-09-13T06:53:31.280Z,20.94
2022-09-13T06:56:04.397Z,20.92
2022-09-13T06:58:32.074Z,21.02
2022-09-13T07:01:12.585Z,21.18
2022-09-13T07:03:40.962Z,21.38
2022-09-13T07:06:12.957Z,21.43
2022-09-13T07:08:40.777Z,22.03
2022-09-13T07:11:09.489Z,22.13
2022-09-13T07:13:36.737Z,22.03
2022-09-13T07:16:08.805Z,21.96
2022-09-13T07:18:36.402Z,21.86
2022-09-13T07:21:05.462Z,21.89
2022-09-13T07:23:33.444Z,21.91
2022-09-13T07:26:05.602Z,21.94
2022-09-13T07:28:35.511Z,21.99
2022-09-13T07:31:10.621Z,22.08
2022-09-13T07:33:38.855Z,22.10
2022-09-13T07:36:07.053Z,22.15
2022-09-13T07:38:35.053Z,22.17
2022-09-13T07:41:03.032Z,22.15
2022-09-13T07:43:30.251Z,22.19
2022-09-13T07:46:18.373Z,22.24
2022-09-13T07:48:46.257Z,22.15
2022-09-13T07:51:17.852Z,22.14
2022-09-13T07:53:45.867Z,22.26
2022-09-13T07:56:14.277Z,22.47
2022-09-13T07:58:42.402Z,22.44
2022-09-13T08:01:26.039Z,22.55
2022-09-13T08:03:57.720Z,22.66
2022-09-13T08:06:25.892Z,22.71
2022-09-13T08:08:53.246Z,22.77
2022-09-13T08:11:21.902Z,22.81
2022-09-13T08:13:49.828Z,22.89
2022-09-13T08:16:18.294Z,22.90
2022-09-13T08:18:47.082Z,23.02
2022-09-13T08:21:14.330Z,23.07
2022-09-13T08:23:42.169Z,23.22
2022-09-13T08:26:10.657Z,23.29
2022-09-13T08:28:40.399Z,23.35
2022-09-13T08:31:09.022Z,23.25
2022-09-13T08:33:36.365Z,23.53
2022-09-13T08:36:04.288Z,23.79
2022-09-13T08:38:32.242Z,23.98
2022-09-13T08:41:02.079Z,23.86
2022-09-13T08:43:29.618Z,24.04
2022-09-13T08:46:23.393Z,24.11
2022-09-13T08:48:52.849Z,24.25
2022-09-13T08:51:25.206Z,24.55
2022-09-13T08:53:52.611Z,24.66
2022-09-13T08:56:23.608Z,24.72
2022-09-13T08:59:05.939Z,25.11
2022-09-13T09:01:52.155Z,26.37
2022-09-13T09:04:19.435Z,28.24
2022-09-13T09:06:46.914Z,28.58
2022-09-13T09:09:16.867Z,28.12
2022-09-13T09:12:03.483Z,27.22
2022-09-13T09:14:33.411Z,27.32
2022-09-13T09:17:04.197Z,26.91
2022-09-13T09:19:36.776Z,26.60
2022-09-13T09:22:05.903Z,26.00
2022-09-13T09:24:36.376Z,25.73
2022-09-13T09:27:14.058Z,25.71
2022-09-13T09:29:44.672Z,25.50
2022-09-13T09:32:18.419Z,25.55
2022-09-13T09:34:54.406Z,25.54
2022-09-13T09:37:25.099Z,25.45
2022-09-13T09:39:53.209Z,25.46
2022-09-13T09:42:25.508Z,25.46
2022-09-13T09:44:58.057Z,25.43
2022-09-13T09:47:30.376Z,25.28
2022-09-13T09:50:10.314Z,25.31
2022-09-13T09:52:44.911Z,25.28
2022-09-13T09:55:15.641Z,25.25
2022-09-13T09:57:52.274Z,25.22
2022-09-13T10:00:20.192Z,25.31
2022-09-13T10:02:48.583Z,25.27
2022-09-13T10:05:19.592Z,25.04
2022-09-13T10:07:54.467Z,25.14
2022-09-13T10:10:24.952Z,25.18
2022-09-13T10:12:56.637Z,25.24
2022-09-13T10:15:26.015Z,25.05
2022-09-13T10:18:16.832Z,24.95
2022-09-13T10:21:00.934Z,25.02
2022-09-13T10:23:28.149Z,25.05
2022-09-13T10:26:21.708Z,25.19
2022-09-13T10:29:09.057Z,25.29
2022-09-13T10:31:38.792Z,24.86
2022-09-13T10:34:15.562Z,24.95
2022-09-13T10:36:54.620Z,25.08
2022-09-13T10:39:22.958Z,25.17
2022-09-13T10:41:52.940Z,25.29
2022-09-13T10:44:40.336Z,25.43
2022-09-13T10:47:26.503Z,25.52
2022-09-13T10:49:54.856Z,25.52
2022-09-13T10:52:25.084Z,25.38
2022-09-13T10:54:52.537Z,25.30
2022-09-13T10:57:28.916Z,25.42
2022-09-13T10:59:56.089Z,25.61
2022-09-13T11:02:36.922Z,25.46
2022-09-13T11:05:06.959Z,25.55
2022-09-13T11:07:40.462Z,25.63
2022-09-13T11:10:16.417Z,25.67
2022-09-13T11:12:46.302Z,25.66
2022-09-13T11:15:18.232Z,25.81
2022-09-13T11:18:14.511Z,25.92
2022-09-13T11:20:57.894Z,25.85
2022-09-13T11:23:40.636Z,25.67
2022-09-13T11:26:10.887Z,25.55
2022-09-13T11:28:40.994Z,25.61
2022-09-13T11:31:20.443Z,25.63
2022-09-13T11:33:47.715Z,25.75
2022-09-13T11:36:24.050Z,25.80
2022-09-13T11:38:54.031Z,25.83
2022-09-13T11:41:34.464Z,25.90
2022-09-13T11:44:16.011Z,25.96
2022-09-13T11:46:46.038Z,26.11
2022-09-13T11:49:28.471Z,26.14
2022-09-13T11:51:56.210Z,26.12
2022-09-13T11:54:33.193Z,26.03
2022-09-13T11:57:02.895Z,26.09
2022-09-13T11:59:35.690Z,25.94
2022-09-13T12:02:10.463Z,25.78
2022-09-13T12:04:43.741Z,25.83
2022-09-13T12:07:14.378Z,25.92
2022-09-13T12:09:47.958Z,26.01
2022-09-13T12:12:15.523Z,26.02
2022-09-13T12:14:49.423Z,26.04
2022-09-13T12:17:29.323Z,26.02
2022-09-13T12:20:00.272Z,26.04
2022-09-13T12:22:31.013Z,26.05
2022-09-13T12:24:59.489Z,26.02
2022-09-13T12:27:29.826Z,26.04
2022-09-13T12:30:02.763Z,25.95
2022-09-13T12:32:38.059Z,26.25
2022-09-13T12:35:13.807Z,26.36
2022-09-13T12:37:59.415Z,26.41
2022-09-13T12:40:37.952Z,26.37
2022-09-13T12:43:08.593Z,26.39
2022-09-13T12:45:35.728Z,26.39
2022-09-13T12:48:11.980Z,26.43
2022-09-13T12:50:43.807Z,26.45
2022-09-13T12:53:29.892Z,26.42
2022-09-13T12:56:02.827Z,26.41
2022-09-13T12:58:36.120Z,26.48
2022-09-13T13:01:09.826Z,26.48
2022-09-13T13:03:45.112Z,26.45
2022-09-13T13:06:27.442Z,26.39
2022-09-13T13:08:59.164Z,26.45
2022-09-13T13:11:27.762Z,26.40
2022-09-13T13:14:09.328Z,26.36
2022-09-13T13:16:38.933Z,26.38
2022-09-13T13:19:26.074Z,26.41
2022-09-13T13:21:54.387Z,26.43
2022-09-13T13:24:21.556Z,26.43
2022-09-13T13:26:50.682Z,26.46
2022-09-13T13:29:19.842Z,26.48
2022-09-13T13:32:07.877Z,26.42
2022-09-13T13:34:42.667Z,26.40
2022-09-13T13:37:09.786Z,26.39
2022-09-13T13:39:46.625Z,26.40
2022-09-13T13:42:20.262Z,26.42
2022-09-13T13:44:47.529Z,26.48
2022-09-13T13:47:14.715Z,26.46
2022-09-13T13:49:50.100Z,26.42
2022-09-13T13:52:35.728Z,26.45
2022-09-13T13:55:21.417Z,26.76
2022-09-13T13:58:03.067Z,26.69
2022-09-13T14:00:31.600Z,26.65
2022-09-13T14:02:58.889Z,26.65
2022-09-13T14:05:29.100Z,26.64
2022-09-13T14:07:56.242Z,26.51
2022-09-13T14:10:45.805Z,26.47
2022-09-13T14:13:31.633Z,26.53
2022-09-13T14:16:09.984Z,26.46
2022-09-13T14:19:00.160Z,26.40
2022-09-13T14:21:30.741Z,26.37
2022-09-13T14:24:18.663Z,26.38
2022-09-13T14:26:50.976Z,26.37
2022-09-13T14:29:19.919Z,26.39
2022-09-13T14:31:48.398Z,26.39
2022-09-13T14:34:35.648Z,26.40
2022-09-13T14:37:04.830Z,26.40
2022-09-13T14:39:32.388Z,26.36
2022-09-13T14:42:00.364Z,26.51
2022-09-13T14:44:29.353Z,26.47
2022-09-13T14:47:01.752Z,26.44
2022-09-13T14:49:33.158Z,26.42
2022-09-13T14:52:03.385Z,26.39
2022-09-13T14:54:30.648Z,26.40
2022-09-13T14:57:00.121Z,26.41
2022-09-13T14:59:36.724Z,26.41
2022-09-13T15:02:23.773Z,26.34
2022-09-13T15:04:53.099Z,26.37
2022-09-13T15:07:22.736Z,26.38
2022-09-13T15:09:51.322Z,26.42
2022-09-13T15:12:28.758Z,26.36
2022-09-13T15:15:14.728Z,26.38
2022-09-13T15:18:01.612Z,26.38
2022-09-13T15:20:30.984Z,26.44
2022-09-13T15:22:58.470Z,26.44
2022-09-13T15:25:29.476Z,26.42
2022-09-13T15:27:57.414Z,26.44
2022-09-13T15:30:41.413Z,26.52
2022-09-13T15:33:08.610Z,26.50
2022-09-13T15:35:37.012Z,26.41
2022-09-13T15:38:22.777Z,26.35
2022-09-13T15:41:00.963Z,26.29
2022-09-13T15:43:28.461Z,26.22
2022-09-13T15:45:59.709Z,26.14
2022-09-13T15:48:28.895Z,26.25
2022-09-13T15:51:07.501Z,26.16
2022-09-13T15:53:35.811Z,26.09
2022-09-13T15:56:03.892Z,26.03
2022-09-13T15:58:31.464Z,25.96
2022-09-13T16:00:58.860Z,25.95
2022-09-13T16:03:26.379Z,25.93
2022-09-13T16:05:53.945Z,25.88
2022-09-13T16:08:21.128Z,25.85
2022-09-13T16:10:48.340Z,25.80
2022-09-13T16:13:15.555Z,25.73
2022-09-13T16:15:42.829Z,25.74
2022-09-13T16:18:10.640Z,25.76
2022-09-13T16:20:37.788Z,25.81
2022-09-13T16:23:05.023Z,25.95
2022-09-13T16:25:32.227Z,26.07
2022-09-13T16:27:59.832Z,26.06
2022-09-13T16:30:30.433Z,26.07
2022-09-13T16:32:58.693Z,26.08
2022-09-13T16:35:30.488Z,25.96
2022-09-13T16:37:57.917Z,25.88
2022-09-13T16:40:25.235Z,25.80
2022-09-13T16:42:52.577Z,25.76
2022-09-13T16:45:20.038Z,25.76
2022-09-13T16:47:47.455Z,25.75
2022-09-13T16:50:14.716Z,25.71
2022-09-13T16:52:42.234Z,25.72
2022-09-13T16:55:09.576Z,25.71
2022-09-13T16:57:37.382Z,25.72
2022-09-13T17:00:08.876Z,25.74
2022-09-13T17:02:36.263Z,25.71
2022-09-13T17:05:05.373Z,25.72
2022-09-13T17:07:32.583Z,25.77
2022-09-13T17:10:00.481Z,25.69
2022-09-13T17:12:27.845Z,25.63
2022-09-13T17:14:55.825Z,25.62
2022-09-13T17:17:23.060Z,25.63
2022-09-13T17:19:50.585Z,25.56
2022-09-13T17:22:17.800Z,25.52
2022-09-13T17:24:44.978Z,25.51
2022-09-13T17:27:12.142Z,25.47
2022-09-13T17:29:39.440Z,25.43
2022-09-13T17:32:06.622Z,25.44
2022-09-13T17:34:34.709Z,25.41
2022-09-13T17:37:03.715Z,25.42
2022-09-13T17:39:31.158Z,25.45
2022-09-13T17:41:58.667Z,25.39
2022-09-13T17:44:26.084Z,25.33
2022-09-13T17:46:53.302Z,25.30
2022-09-13T17:49:20.632Z,25.29
2022-09-13T17:51:47.899Z,25.26
2022-09-13T17:54:15.135Z,25.24
2022-09-13T17:56:43.706Z,25.21
2022-09-13T17:59:15.248Z,25.23
2022-09-13T18:01:45.686Z,25.27
2022-09-13T18:04:13.873Z,25.29
2022-09-13T18:06:42.789Z,25.27
2022-09-13T18:09:10.935Z,25.19
2022-09-13T18:11:39.018Z,25.34
2022-09-13T18:14:06.514Z,25.33
2022-09-13T18:16:33.908Z,25.38
2022-09-13T18:19:01.706Z,25.31
2022-09-13T18:21:29.318Z,25.26
2022-09-13T18:23:58.773Z,25.28
2022-09-13T18:26:26.780Z,25.27
2022-09-13T18:28:59.151Z,25.25
2022-09-13T18:31:26.454Z,25.26
2022-09-13T18:33:54.992Z,25.26
2022-09-13T18:36:22.787Z,25.25
2022-09-13T18:38:50.044Z,25.11
2022-09-13T18:41:18.721Z,24.94
2022-09-13T18:43:50.591Z,24.87
2022-09-13T18:46:21.392Z,24.88
2022-09-13T18:48:49.323Z,24.91
2022-09-13T18:51:18.237Z,24.79
2022-09-13T18:53:45.760Z,24.73
2022-09-13T18:56:14.688Z,24.70
2022-09-13T18:58:42.137Z,24.66
2022-09-13T19:01:10.848Z,24.62
2022-09-13T19:03:38.800Z,24.64
2022-09-13T19:06:10.455Z,24.64
2022-09-13T19:08:37.676Z,24.58
2022-09-13T19:11:05.245Z,24.47
2022-09-13T19:13:32.692Z,24.59
2022-09-13T19:16:00.643Z,24.57
2022-09-13T19:18:28.290Z,24.54
2022-09-13T19:21:02.704Z,24.51
2022-09-13T19:23:55.543Z,24.38
2022-09-13T19:26:19.972Z,24.36
2022-09-13T19:28:48.424Z,24.46
2022-09-13T19:31:15.858Z,24.48
2022-09-13T19:33:44.288Z,24.37
2022-09-13T19:36:12.533Z,24.25
2022-09-13T19:38:40.073Z,24.14
2022-09-13T19:41:09.805Z,24.14
2022-09-13T19:43:38.125Z,24.08
2022-09-13T19:46:06.656Z,24.04
2022-09-13T19:48:44.017Z,24.06
2022-09-13T19:51:13.035Z,24.04
2022-09-13T19:53:56.375Z,23.96
2022-09-13T19:56:29.442Z,23.98
2022-09-13T19:58:56.593Z,23.95
2022-09-13T20:01:31.631Z,23.84
2022-09-13T20:03:59.949Z,23.70
2022-09-13T20:06:27.906Z,23.62
2022-09-13T20:08:59.533Z,23.54
2022-09-13T20:11:28.545Z,23.50
2022-09-13T20:13:56.193Z,23.51
2022-09-13T20:16:24.705Z,23.59
2022-09-13T20:18:52.225Z,23.53
2022-09-13T20:21:19.659Z,23.31
2022-09-13T20:23:46.918Z,23.38
2022-09-13T20:26:15.546Z,23.35
2022-09-13T20:28:43.082Z,23.38
2022-09-13T20:31:10.443Z,23.34
2022-09-13T20:33:39.320Z,23.20
2022-09-13T20:36:09.550Z,23.19
2022-09-13T20:38:37.052Z,23.22
2022-09-13T20:41:05.779Z,23.21
2022-09-13T20:43:33.584Z,23.17
2022-09-13T20:46:02.416Z,23.26
2022-09-13T20:48:29.681Z,23.12
2022-09-13T20:50:57.585Z,23.10
2022-09-13T20:53:24.704Z,23.14
2022-09-13T20:55:52.731Z,23.36
2022-09-13T20:58:20.999Z,23.46
2022-09-13T21:00:49.021Z,23.46
2022-09-13T21:03:16.585Z,23.53
2022-09-13T21:05:43.831Z,23.65
2022-09-13T21:08:33.012Z,23.67
2022-09-13T21:11:04.098Z,23.73
2022-09-13T21:13:33.366Z,23.77
2022-09-13T21:16:07.247Z,23.73
2022-09-13T21:18:34.697Z,23.77
2022-09-13T21:21:03.424Z,23.70
2022-09-13T21:23:31.967Z,23.70
2022-09-13T21:26:07.128Z,23.66
2022-09-13T21:28:37.804Z,23.68
2022-09-13T21:31:06.129Z,23.58
2022-09-13T21:33:34.214Z,23.60
2022-09-13T21:36:02.878Z,23.52
2022-09-13T21:38:31.006Z,23.59
2022-09-13T21:41:00.596Z,23.59
2022-09-13T21:43:28.021Z,23.59
2022-09-13T21:45:59.563Z,23.58
2022-09-13T21:48:28.126Z,23.62
2022-09-13T21:51:00.373Z,23.52
2022-09-13T21:53:29.110Z,23.35
2022-09-13T21:55:56.310Z,23.43
2022-09-13T21:58:23.489Z,23.59
2022-09-13T22:00:50.741Z,23.67
2022-09-13T22:03:17.976Z,23.75
2022-09-13T22:05:46.472Z,23.72
2022-09-13T22:08:13.606Z,23.75
2022-09-13T22:10:40.841Z,23.72
2022-09-13T22:13:08.157Z,23.78
2022-09-13T22:15:35.587Z,23.62
2022-09-13T22:18:02.822Z,23.60
2022-09-13T22:20:29.979Z,23.65
2022-09-13T22:22:57.198Z,23.64
2022-09-13T22:25:24.475Z,23.66
2022-09-13T22:27:52.211Z,23.59
2022-09-13T22:30:19.366Z,23.53
2022-09-13T22:32:46.530Z,23.67
2022-09-13T22:35:14.159Z,23.55
2022-09-13T22:37:41.608Z,23.50
2022-09-13T22:40:09.368Z,23.60
2022-09-13T22:42:36.639Z,23.57
2022-09-13T22:45:04.029Z,23.46
2022-09-13T22:47:31.210Z,23.50
2022-09-13T22:49:58.486Z,23.47
2022-09-13T22:52:25.709Z,23.36
2022-09-13T22:54:52.884Z,23.29
2022-09-13T22:57:20.219Z,23.29
2022-09-13T22:59:47.652Z,23.29
2022-09-13T23:02:14.841Z,23.31
2022-09-13T23:04:42.125Z,23.28
2022-09-13T23:07:09.333Z,23.23
2022-09-13T23:09:36.808Z,23.14
2022-09-13T23:12:04.719Z,23.03
2022-09-13T23:14:31.970Z,22.99
2022-09-13T23:16:59.198Z,22.98
2022-09-13T23:19:28.177Z,23.05
2022-09-13T23:21:55.395Z,23.02
2022-09-13T23:24:24.158Z,23.00
2022-09-13T23:26:53.962Z,22.86
2022-09-13T23:29:21.190Z,22.74
2022-09-13T23:31:48.874Z,22.59
2022-09-13T23:34:17.685Z,22.59
2022-09-13T23:36:45.604Z,22.53
2022-09-13T23:39:16.580Z,22.53
2022-09-13T23:41:45.104Z,22.60
2022-09-13T23:44:13.004Z,22.55
2022-09-13T23:46:40.244Z,22.48
2022-09-13T23:49:07.427Z,22.39
2022-09-13T23:51:34.715Z,22.30
2022-09-13T23:54:01.994Z,22.32
2022-09-13T23:56:30.481Z,22.29
2022-09-13T23:58:58.402Z,22.22
